sensor_id;sensor_type;location;lat;lon;timestamp;pressure;altitude;pressure_sealevel;temperature;humidity
15568;BME280;7885;42.596;23.044;2023-03-01T00:00:49;93317.50;;;9.20;93.05
15568;BME280;7885;42.596;23.044;2023-03-01T00:03:16;93318.66;;;9.22;93.08
15568;BME280;7885;42.596;23.044;2023-03-01T00:05:44;93299.19;;;9.09;93.01
15568;BME280;7885;42.596;23.044;2023-03-01T00:08:12;93292.53;;;9.07;92.71
15568;BME280;7885;42.596;23.044;2023-03-01T00:10:39;93290.19;;;9.02;93.10
15568;BME280;7885;42.596;23.044;2023-03-01T00:13:06;93304.66;;;9.17;93.18
15568;BME280;7885;42.596;23.044;2023-03-01T00:15:33;93302.31;;;9.15;93.19
15568;BME280;7885;42.596;23.044;2023-03-01T00:18:00;93303.03;;;9.08;92.96
15568;BME280;7885;42.596;23.044;2023-03-01T00:20:27;93215.72;;;8.55;92.84
15568;BME280;7885;42.596;23.044;2023-03-01T00:22:54;93291.41;;;9.08;93.13
15568;BME280;7885;42.596;23.044;2023-03-01T00:25:22;93295.25;;;9.07;93.32
15568;BME280;7885;42.596;23.044;2023-03-01T00:27:48;93278.13;;;8.96;93.07
15568;BME280;7885;42.596;23.044;2023-03-01T00:30:16;93292.16;;;9.05;93.00
15568;BME280;7885;42.596;23.044;2023-03-01T00:32:42;93263.69;;;8.85;92.50
15568;BME280;7885;42.596;23.044;2023-03-01T00:35:09;93276.56;;;8.95;92.63
15568;BME280;7885;42.596;23.044;2023-03-01T00:37:36;93280.06;;;8.95;92.44
15568;BME280;7885;42.596;23.044;2023-03-01T00:40:03;93283.53;;;8.92;92.89
15568;BME280;7885;42.596;23.044;2023-03-01T00:42:32;93283.53;;;8.92;93.02
15568;BME280;7885;42.596;23.044;2023-03-01T00:44:59;93293.97;;;8.94;93.14
15568;BME280;7885;42.596;23.044;2023-03-01T00:47:28;93297.44;;;8.91;93.02
15568;BME280;7885;42.596;23.044;2023-03-01T00:49:55;93299.00;;;8.88;93.20
15568;BME280;7885;42.596;23.044;2023-03-01T00:52:21;93299.00;;;8.88;93.29
15568;BME280;7885;42.596;23.044;2023-03-01T00:54:48;93304.03;;;8.90;93.43
15568;BME280;7885;42.596;23.044;2023-03-01T00:57:15;93235.00;;;8.43;93.54
15568;BME280;7885;42.596;23.044;2023-03-01T00:59:43;93296.59;;;8.83;93.37
15568;BME280;7885;42.596;23.044;2023-03-01T01:02:09;93307.53;;;8.90;93.08
15568;BME280;7885;42.596;23.044;2023-03-01T01:04:36;93299.78;;;8.89;92.72
15568;BME280;7885;42.596;23.044;2023-03-01T01:07:03;93298.22;;;8.88;92.66
15568;BME280;7885;42.596;23.044;2023-03-01T01:09:31;93288.50;;;8.87;92.75
15568;BME280;7885;42.596;23.044;2023-03-01T01:11:57;93277.94;;;8.75;92.94
15568;BME280;7885;42.596;23.044;2023-03-01T01:14:24;93293.53;;;8.85;92.74
15568;BME280;7885;42.596;23.044;2023-03-01T01:16:52;93277.19;;;8.78;92.69
15568;BME280;7885;42.596;23.044;2023-03-01T01:19:19;93268.59;;;8.72;93.24
15568;BME280;7885;42.596;23.044;2023-03-01T01:21:46;93282.63;;;8.81;93.67
15568;BME280;7885;42.596;23.044;2023-03-01T01:24:14;93278.00;;;8.82;93.19
15568;BME280;7885;42.596;23.044;2023-03-01T01:26:41;93283.00;;;8.80;93.10
15568;BME280;7885;42.596;23.044;2023-03-01T01:29:09;93240.09;;;8.52;93.08
15568;BME280;7885;42.596;23.044;2023-03-01T01:31:37;93274.78;;;8.73;93.21
15568;BME280;7885;42.596;23.044;2023-03-01T01:34:07;93287.28;;;8.81;92.85
15568;BME280;7885;42.596;23.044;2023-03-01T01:36:34;93281.81;;;8.77;92.00
15568;BME280;7885;42.596;23.044;2023-03-01T01:39:01;93285.50;;;8.58;92.63
15568;BME280;7885;42.596;23.044;2023-03-01T01:41:29;93287.44;;;8.54;93.81
15568;BME280;7885;42.596;23.044;2023-03-01T01:44:14;93287.06;;;8.59;94.35
15568;BME280;7885;42.596;23.044;2023-03-01T01:46:42;93288.66;;;8.60;94.20
15568;BME280;7885;42.596;23.044;2023-03-01T01:49:19;93281.66;;;8.59;94.27
15568;BME280;7885;42.596;23.044;2023-03-01T01:51:48;93246.53;;;8.33;94.88
15568;BME280;7885;42.596;23.044;2023-03-01T01:54:20;93277.78;;;8.60;95.24
15568;BME280;7885;42.596;23.044;2023-03-01T01:56:52;93273.94;;;8.61;94.80
15568;BME280;7885;42.596;23.044;2023-03-01T01:59:23;93252.91;;;8.51;94.31
15568;BME280;7885;42.596;23.044;2023-03-01T02:01:51;93263.81;;;8.58;94.66
15568;BME280;7885;42.596;23.044;2023-03-01T02:04:19;93236.88;;;8.39;94.69
15568;BME280;7885;42.596;23.044;2023-03-01T02:06:50;93262.97;;;8.51;93.92
15568;BME280;7885;42.596;23.044;2023-03-01T02:09:20;93223.16;;;8.25;94.05
15568;BME280;7885;42.596;23.044;2023-03-01T02:11:48;93244.22;;;8.35;93.76
15568;BME280;7885;42.596;23.044;2023-03-01T02:14:17;93255.00;;;8.32;93.68
15568;BME280;7885;42.596;23.044;2023-03-01T02:16:43;93249.56;;;8.28;94.13
15568;BME280;7885;42.596;23.044;2023-03-01T02:19:20;93241.75;;;8.23;93.73
15568;BME280;7885;42.596;23.044;2023-03-01T02:21:55;93233.44;;;8.09;93.86
15568;BME280;7885;42.596;23.044;2023-03-01T02:24:29;93254.03;;;8.17;94.15
15568;BME280;7885;42.596;23.044;2023-03-01T02:27:00;93167.94;;;7.67;94.02
15568;BME280;7885;42.596;23.044;2023-03-01T02:29:29;93253.31;;;8.20;94.55
15568;BME280;7885;42.596;23.044;2023-03-01T02:31:57;93224.53;;;8.08;94.38
15568;BME280;7885;42.596;23.044;2023-03-01T02:34:26;93251.84;;;8.26;94.63
15568;BME280;7885;42.596;23.044;2023-03-01T02:36:55;93163.03;;;7.76;94.36
15568;BME280;7885;42.596;23.044;2023-03-01T02:39:26;93228.53;;;8.22;94.72
15568;BME280;7885;42.596;23.044;2023-03-01T02:41:56;93249.56;;;8.28;94.69
15568;BME280;7885;42.596;23.044;2023-03-01T02:44:24;93247.28;;;8.30;94.75
15568;BME280;7885;42.596;23.044;2023-03-01T02:46:55;93195.78;;;8.00;94.67
15568;BME280;7885;42.596;23.044;2023-03-01T02:49:25;93238.03;;;8.38;94.28
15568;BME280;7885;42.596;23.044;2023-03-01T02:52:12;93251.97;;;8.37;94.12
15568;BME280;7885;42.596;23.044;2023-03-01T02:54:47;93252.03;;;8.40;93.93
15568;BME280;7885;42.596;23.044;2023-03-01T02:57:16;93240.38;;;8.40;93.96
15568;BME280;7885;42.596;23.044;2023-03-01T02:59:44;93241.16;;;8.40;93.82
15568;BME280;7885;42.596;23.044;2023-03-01T03:02:21;93233.03;;;8.40;93.04
15568;BME280;7885;42.596;23.044;2023-03-01T03:05:02;93236.88;;;8.39;92.43
15568;BME280;7885;42.596;23.044;2023-03-01T03:07:28;93172.53;;;7.96;91.78
15568;BME280;7885;42.596;23.044;2023-03-01T03:09:55;93216.84;;;8.14;91.08
15568;BME280;7885;42.596;23.044;2023-03-01T03:12:22;93246.41;;;8.26;91.42
15568;BME280;7885;42.596;23.044;2023-03-01T03:14:48;93239.44;;;8.25;91.56
15568;BME280;7885;42.596;23.044;2023-03-01T03:17:15;93230.81;;;8.16;91.13
15568;BME280;7885;42.596;23.044;2023-03-01T03:19:43;93242.81;;;8.15;91.18
15568;BME280;7885;42.596;23.044;2023-03-01T03:22:11;93242.81;;;8.15;91.49
15568;BME280;7885;42.596;23.044;2023-03-01T03:24:37;93226.81;;;8.03;91.17
15568;BME280;7885;42.596;23.044;2023-03-01T03:27:04;93241.59;;;8.09;91.25
15568;BME280;7885;42.596;23.044;2023-03-01T03:29:31;93228.69;;;7.99;91.25
15568;BME280;7885;42.596;23.044;2023-03-01T03:31:58;93233.72;;;8.00;91.62
15568;BME280;7885;42.596;23.044;2023-03-01T03:34:25;93251.69;;;8.12;91.26
15568;BME280;7885;42.596;23.044;2023-03-01T03:36:54;93250.94;;;8.15;91.07
15568;BME280;7885;42.596;23.044;2023-03-01T03:39:22;93259.47;;;8.13;91.26
15568;BME280;7885;42.596;23.044;2023-03-01T03:41:48;93233.78;;;8.04;91.23
15568;BME280;7885;42.596;23.044;2023-03-01T03:44:15;93202.50;;;7.77;91.40
15568;BME280;7885;42.596;23.044;2023-03-01T03:46:42;93262.97;;;8.18;91.43
15568;BME280;7885;42.596;23.044;2023-03-01T03:49:09;93250.13;;;8.11;91.56
15568;BME280;7885;42.596;23.044;2023-03-01T03:51:35;93243.16;;;8.10;91.37
15568;BME280;7885;42.596;23.044;2023-03-01T03:54:03;93248.97;;;8.12;91.45
15568;BME280;7885;42.596;23.044;2023-03-01T03:56:30;93265.72;;;8.21;91.53
15568;BME280;7885;42.596;23.044;2023-03-01T03:58:57;93268.84;;;8.23;91.90
15568;BME280;7885;42.596;23.044;2023-03-01T04:01:23;93264.56;;;8.22;91.69
15568;BME280;7885;42.596;23.044;2023-03-01T04:03:50;93264.53;;;8.19;91.74
15568;BME280;7885;42.596;23.044;2023-03-01T04:06:19;93122.31;;;7.35;91.63
15568;BME280;7885;42.596;23.044;2023-03-01T04:08:46;93263.44;;;8.23;91.03
15568;BME280;7885;42.596;23.044;2023-03-01T04:11:17;93250.47;;;8.06;91.15
15568;BME280;7885;42.596;23.044;2023-03-01T04:13:57;93252.31;;;7.98;91.20
15568;BME280;7885;42.596;23.044;2023-03-01T04:16:24;93260.38;;;7.95;92.55
15568;BME280;7885;42.596;23.044;2023-03-01T04:18:51;93261.09;;;7.88;92.68
15568;BME280;7885;42.596;23.044;2023-03-01T04:21:19;93260.69;;;7.90;93.46
15568;BME280;7885;42.596;23.044;2023-03-01T04:23:45;93264.84;;;7.80;93.43
15568;BME280;7885;42.596;23.044;2023-03-01T04:26:12;93258.34;;;7.85;93.49
15568;BME280;7885;42.596;23.044;2023-03-01T04:28:41;93255.97;;;7.83;93.57
15568;BME280;7885;42.596;23.044;2023-03-01T04:31:12;93250.47;;;7.76;94.20
15568;BME280;7885;42.596;23.044;2023-03-01T04:33:42;93249.72;;;7.79;94.22
15568;BME280;7885;42.596;23.044;2023-03-01T04:36:10;93243.16;;;7.80;93.91
15568;BME280;7885;42.596;23.044;2023-03-01T04:38:38;93253.75;;;7.89;93.60
15568;BME280;7885;42.596;23.044;2023-03-01T04:41:05;93207.34;;;7.60;93.05
15568;BME280;7885;42.596;23.044;2023-03-01T04:43:31;93261.97;;;7.96;92.41
15568;BME280;7885;42.596;23.044;2023-03-01T04:46:05;93271.66;;;8.00;92.39
15568;BME280;7885;42.596;23.044;2023-03-01T04:48:34;93263.94;;;7.99;92.37
15568;BME280;7885;42.596;23.044;2023-03-01T04:51:02;93245.63;;;7.89;92.19
15568;BME280;7885;42.596;23.044;2023-03-01T04:53:29;93263.59;;;8.04;92.06
15568;BME280;7885;42.596;23.044;2023-03-01T04:55:57;93257.69;;;7.95;92.40
15568;BME280;7885;42.596;23.044;2023-03-01T05:01:46;93267.28;;;7.89;92.79
15568;BME280;7885;42.596;23.044;2023-03-01T05:04:13;93263.66;;;7.78;93.07
15568;BME280;7885;42.596;23.044;2023-03-01T05:06:40;93261.69;;;7.75;93.75
15568;BME280;7885;42.596;23.044;2023-03-01T05:09:06;93249.84;;;7.56;93.98
15568;BME280;7885;42.596;23.044;2023-03-01T05:11:33;93237.97;;;7.38;94.20
15568;BME280;7885;42.596;23.044;2023-03-01T05:14:01;93253.19;;;7.46;94.59
15568;BME280;7885;42.596;23.044;2023-03-01T05:16:28;93253.91;;;7.43;94.90
15568;BME280;7885;42.596;23.044;2023-03-01T05:18:57;93271.09;;;7.54;95.05
15568;BME280;7885;42.596;23.044;2023-03-01T05:21:24;93191.50;;;7.03;95.16
15568;BME280;7885;42.596;23.044;2023-03-01T05:23:51;93274.16;;;7.53;95.70
15568;BME280;7885;42.596;23.044;2023-03-01T05:26:19;93273.47;;;7.59;95.79
15568;BME280;7885;42.596;23.044;2023-03-01T05:28:52;93267.31;;;7.62;95.70
15568;BME280;7885;42.596;23.044;2023-03-01T05:31:21;93272.78;;;7.66;95.34
15568;BME280;7885;42.596;23.044;2023-03-01T05:33:48;93275.97;;;7.72;95.40
15568;BME280;7885;42.596;23.044;2023-03-01T05:36:16;93270.56;;;7.72;94.59
15568;BME280;7885;42.596;23.044;2023-03-01T05:38:43;93279.88;;;7.74;94.66
15568;BME280;7885;42.596;23.044;2023-03-01T05:41:14;93261.13;;;7.62;94.15
15568;BME280;7885;42.596;23.044;2023-03-01T05:43:40;93289.22;;;7.80;94.27
15568;BME280;7885;42.596;23.044;2023-03-01T05:46:10;93291.59;;;7.82;93.96
15568;BME280;7885;42.596;23.044;2023-03-01T05:48:38;93233.88;;;7.48;93.73
15568;BME280;7885;42.596;23.044;2023-03-01T05:51:05;93293.97;;;7.87;93.64
15568;BME280;7885;42.596;23.044;2023-03-01T05:53:33;93300.94;;;7.88;93.49
15568;BME280;7885;42.596;23.044;2023-03-01T05:56:02;93292.50;;;7.93;93.32
15568;BME280;7885;42.596;23.044;2023-03-01T05:58:29;93251.84;;;7.63;92.82
15568;BME280;7885;42.596;23.044;2023-03-01T06:00:56;93231.53;;;7.46;93.08
15568;BME280;7885;42.596;23.044;2023-03-01T06:03:23;93201.41;;;7.22;93.20
15568;BME280;7885;42.596;23.044;2023-03-01T06:05:49;93270.47;;;7.65;93.07
15568;BME280;7885;42.596;23.044;2023-03-01T06:08:16;93321.94;;;7.94;93.11
15568;BME280;7885;42.596;23.044;2023-03-01T06:10:44;93319.63;;;7.96;92.92
15568;BME280;7885;42.596;23.044;2023-03-01T06:13:12;93294.69;;;7.84;92.89
15568;BME280;7885;42.596;23.044;2023-03-01T06:15:39;93323.13;;;7.97;92.44
15568;BME280;7885;42.596;23.044;2023-03-01T06:18:06;93283.63;;;7.66;92.48
15568;BME280;7885;42.596;23.044;2023-03-01T06:20:33;93333.59;;;7.98;92.51
15568;BME280;7885;42.596;23.044;2023-03-01T06:22:59;93330.09;;;7.98;92.58
15568;BME280;7885;42.596;23.044;2023-03-01T06:25:26;93335.56;;;8.01;92.36
15568;BME280;7885;42.596;23.044;2023-03-01T06:27:55;93331.34;;;8.04;92.35
15568;BME280;7885;42.596;23.044;2023-03-01T06:30:23;93325.97;;;8.07;92.10
15568;BME280;7885;42.596;23.044;2023-03-01T06:32:51;93275.97;;;7.72;91.93
15568;BME280;7885;42.596;23.044;2023-03-01T06:35:19;93339.53;;;8.07;91.91
15568;BME280;7885;42.596;23.044;2023-03-01T06:37:47;93330.59;;;8.07;92.04
15568;BME280;7885;42.596;23.044;2023-03-01T06:40:14;93333.00;;;8.12;91.56
15568;BME280;7885;42.596;23.044;2023-03-01T06:42:42;93334.47;;;8.06;92.03
15568;BME280;7885;42.596;23.044;2023-03-01T06:45:11;93339.91;;;8.06;91.89
15568;BME280;7885;42.596;23.044;2023-03-01T06:47:38;93332.91;;;8.05;92.11
15568;BME280;7885;42.596;23.044;2023-03-01T06:50:05;93316.16;;;7.96;91.97
15568;BME280;7885;42.596;23.044;2023-03-01T06:52:32;93337.69;;;8.15;92.09
15568;BME280;7885;42.596;23.044;2023-03-01T06:54:58;93290.91;;;7.88;91.87
15568;BME280;7885;42.596;23.044;2023-03-01T06:57:25;93316.69;;;8.08;91.63
15568;BME280;7885;42.596;23.044;2023-03-01T06:59:52;93337.03;;;8.25;91.45
15568;BME280;7885;42.596;23.044;2023-03-01T07:02:20;93340.25;;;8.31;91.53
15568;BME280;7885;42.596;23.044;2023-03-01T07:04:48;93270.31;;;7.84;90.88
15568;BME280;7885;42.596;23.044;2023-03-01T07:07:15;93338.34;;;8.35;90.70
15568;BME280;7885;42.596;23.044;2023-03-01T07:09:43;93340.28;;;8.34;90.68
15568;BME280;7885;42.596;23.044;2023-03-01T07:12:10;93342.63;;;8.36;90.46
15568;BME280;7885;42.596;23.044;2023-03-01T07:14:37;93341.88;;;8.39;90.67
15568;BME280;7885;42.596;23.044;2023-03-01T07:17:03;93286.34;;;7.96;90.10
15568;BME280;7885;42.596;23.044;2023-03-01T07:19:31;93344.16;;;8.33;90.39
15568;BME280;7885;42.596;23.044;2023-03-01T07:21:58;93337.16;;;8.32;90.55
15568;BME280;7885;42.596;23.044;2023-03-01T07:24:25;93287.19;;;8.03;91.07
15568;BME280;7885;42.596;23.044;2023-03-01T07:26:52;93325.19;;;8.37;90.71
15568;BME280;7885;42.596;23.044;2023-03-01T07:29:19;93337.72;;;8.48;90.91
15568;BME280;7885;42.596;23.044;2023-03-01T07:31:46;93337.41;;;8.53;89.63
15568;BME280;7885;42.596;23.044;2023-03-01T07:34:12;93339.75;;;8.58;89.68
15568;BME280;7885;42.596;23.044;2023-03-01T07:36:40;93336.69;;;8.60;89.47
15568;BME280;7885;42.596;23.044;2023-03-01T07:39:09;93342.16;;;8.63;89.70
15568;BME280;7885;42.596;23.044;2023-03-01T07:41:36;93335.59;;;8.65;89.35
15568;BME280;7885;42.596;23.044;2023-03-01T07:44:03;93313.38;;;8.55;88.00
15568;BME280;7885;42.596;23.044;2023-03-01T07:46:29;93310.66;;;8.55;88.23
15568;BME280;7885;42.596;23.044;2023-03-01T07:48:56;93327.94;;;8.77;88.27
15568;BME280;7885;42.596;23.044;2023-03-01T07:51:23;93328.41;;;8.86;88.11
15568;BME280;7885;42.596;23.044;2023-03-01T07:53:51;93324.59;;;8.91;87.63
15568;BME280;7885;42.596;23.044;2023-03-01T07:56:18;93325.41;;;8.95;88.05
15568;BME280;7885;42.596;23.044;2023-03-01T07:58:45;93320.72;;;8.92;88.31
15568;BME280;7885;42.596;23.044;2023-03-01T08:01:14;93307.16;;;8.92;87.31
15568;BME280;7885;42.596;23.044;2023-03-01T08:03:41;93282.59;;;8.78;87.44
15568;BME280;7885;42.596;23.044;2023-03-01T08:06:09;93319.97;;;8.95;86.86
15568;BME280;7885;42.596;23.044;2023-03-01T08:11:59;93312.53;;;8.85;86.46
15568;BME280;7885;42.596;23.044;2023-03-01T08:14:26;93293.38;;;8.71;87.09
15568;BME280;7885;42.596;23.044;2023-03-01T08:16:53;93320.72;;;8.92;87.34
15568;BME280;7885;42.596;23.044;2023-03-01T08:19:20;93329.28;;;8.94;87.12
15568;BME280;7885;42.596;23.044;2023-03-01T08:21:46;93312.16;;;8.90;87.38
15568;BME280;7885;42.596;23.044;2023-03-01T08:24:13;93314.56;;;8.95;87.55
15568;BME280;7885;42.596;23.044;2023-03-01T08:26:40;93322.84;;;9.09;87.52
15568;BME280;7885;42.596;23.044;2023-03-01T08:29:08;93322.41;;;9.07;86.73
15568;BME280;7885;42.596;23.044;2023-03-01T08:31:36;93323.97;;;9.08;86.80
15568;BME280;7885;42.596;23.044;2023-03-01T08:34:06;93267.06;;;8.75;86.91
15568;BME280;7885;42.596;23.044;2023-03-01T08:36:35;93306.47;;;9.02;86.31
15568;BME280;7885;42.596;23.044;2023-03-01T08:39:03;93318.63;;;9.19;86.54
15568;BME280;7885;42.596;23.044;2023-03-01T08:41:30;93323.34;;;9.25;86.24
15568;BME280;7885;42.596;23.044;2023-03-01T08:43:57;93331.19;;;9.34;85.68
15568;BME280;7885;42.596;23.044;2023-03-01T08:46:26;93322.69;;;9.42;85.70
15568;BME280;7885;42.596;23.044;2023-03-01T08:48:53;93311.00;;;9.35;84.55
15568;BME280;7885;42.596;23.044;2023-03-01T08:51:21;93324.31;;;9.50;84.29
15568;BME280;7885;42.596;23.044;2023-03-01T08:53:48;93318.16;;;9.57;84.61
15568;BME280;7885;42.596;23.044;2023-03-01T08:56:16;93312.31;;;9.55;83.20
15568;BME280;7885;42.596;23.044;2023-03-01T08:58:43;93315.03;;;9.55;83.18
15568;BME280;7885;42.596;23.044;2023-03-01T09:01:11;93249.69;;;9.30;83.29
15568;BME280;7885;42.596;23.044;2023-03-01T09:03:40;93308.94;;;9.69;83.30
15568;BME280;7885;42.596;23.044;2023-03-01T09:06:07;93288.63;;;9.55;82.49
15568;BME280;7885;42.596;23.044;2023-03-01T09:08:34;93313.22;;;9.77;83.06
15568;BME280;7885;42.596;23.044;2023-03-01T09:11:01;93310.53;;;9.80;82.88
15568;BME280;7885;42.596;23.044;2023-03-01T09:13:28;93310.22;;;9.89;82.45
15568;BME280;7885;42.596;23.044;2023-03-01T09:15:56;93316.88;;;10.02;82.65
15568;BME280;7885;42.596;23.044;2023-03-01T09:18:23;93309.91;;;10.08;82.53
15568;BME280;7885;42.596;23.044;2023-03-01T09:20:51;93280.72;;;9.98;82.53
15568;BME280;7885;42.596;23.044;2023-03-01T09:23:20;93296.75;;;10.17;81.61
15568;BME280;7885;42.596;23.044;2023-03-01T09:25:47;93285.16;;;10.20;81.27
15568;BME280;7885;42.596;23.044;2023-03-01T09:28:13;93310.47;;;10.45;80.99
15568;BME280;7885;42.596;23.044;2023-03-01T09:30:40;93307.38;;;10.43;78.87
15568;BME280;7885;42.596;23.044;2023-03-01T09:33:07;93302.31;;;10.45;79.24
15568;BME280;7885;42.596;23.044;2023-03-01T09:35:39;93302.75;;;10.54;79.90
15568;BME280;7885;42.596;23.044;2023-03-01T09:38:13;93307.41;;;10.57;79.60
15568;BME280;7885;42.596;23.044;2023-03-01T09:40:43;93302.34;;;10.56;79.48
15568;BME280;7885;42.596;23.044;2023-03-01T09:43:20;93289.13;;;10.47;80.09
15568;BME280;7885;42.596;23.044;2023-03-01T09:45:49;93300.78;;;10.58;79.44
15568;BME280;7885;42.596;23.044;2023-03-01T09:48:19;93289.91;;;10.51;79.85
15568;BME280;7885;42.596;23.044;2023-03-01T09:50:49;93285.22;;;10.52;79.54
15568;BME280;7885;42.596;23.044;2023-03-01T09:53:20;93253.72;;;10.33;79.45
15568;BME280;7885;42.596;23.044;2023-03-01T09:55:51;93299.31;;;10.72;79.45
15568;BME280;7885;42.596;23.044;2023-03-01T09:58:34;93297.34;;;10.69;78.90
15568;BME280;7885;42.596;23.044;2023-03-01T10:01:14;93304.75;;;10.72;78.30
15568;BME280;7885;42.596;23.044;2023-03-01T10:03:59;93293.06;;;10.68;77.40
15568;BME280;7885;42.596;23.044;2023-03-01T10:06:27;93277.13;;;10.73;78.09
15568;BME280;7885;42.596;23.044;2023-03-01T10:08:57;93277.53;;;10.72;78.53
15568;BME280;7885;42.596;23.044;2023-03-01T10:11:30;93239.38;;;10.50;78.75
15568;BME280;7885;42.596;23.044;2023-03-01T10:14:02;93265.84;;;10.68;78.35
15568;BME280;7885;42.596;23.044;2023-03-01T10:16:40;93281.00;;;10.76;78.06
15568;BME280;7885;42.596;23.044;2023-03-01T10:19:11;93250.28;;;10.64;78.05
15568;BME280;7885;42.596;23.044;2023-03-01T10:21:44;93274.81;;;10.79;77.68
15568;BME280;7885;42.596;23.044;2023-03-01T10:24:15;93271.31;;;10.82;78.63
15568;BME280;7885;42.596;23.044;2023-03-01T10:26:50;93277.16;;;10.98;77.96
15568;BME280;7885;42.596;23.044;2023-03-01T10:29:24;93108.66;;;9.97;76.87
15568;BME280;7885;42.596;23.044;2023-03-01T10:31:54;93273.66;;;11.19;77.47
15568;BME280;7885;42.596;23.044;2023-03-01T10:34:27;93270.94;;;11.22;75.67
15568;BME280;7885;42.596;23.044;2023-03-01T10:36:56;93256.13;;;10.81;75.04
15568;BME280;7885;42.596;23.044;2023-03-01T10:39:26;93212.47;;;10.21;76.40
15568;BME280;7885;42.596;23.044;2023-03-01T10:41:58;93256.44;;;10.40;78.05
15568;BME280;7885;42.596;23.044;2023-03-01T10:44:43;93232.00;;;10.54;77.97
15568;BME280;7885;42.596;23.044;2023-03-01T10:47:21;93256.53;;;10.97;77.61
15568;BME280;7885;42.596;23.044;2023-03-01T10:49:54;93241.75;;;11.19;77.59
15568;BME280;7885;42.596;23.044;2023-03-01T10:52:24;93240.97;;;11.36;75.91
15568;BME280;7885;42.596;23.044;2023-03-01T10:54:54;93261.19;;;11.49;75.01
15568;BME280;7885;42.596;23.044;2023-03-01T10:57:40;93266.66;;;11.42;74.72
15568;BME280;7885;42.596;23.044;2023-03-01T11:00:19;93248.75;;;11.34;74.63
15568;BME280;7885;42.596;23.044;2023-03-01T11:02:49;93254.59;;;11.40;74.21
15568;BME280;7885;42.596;23.044;2023-03-01T11:05:19;93264.34;;;11.23;74.82
15568;BME280;7885;42.596;23.044;2023-03-01T11:07:48;93190.38;;;10.47;75.65
15568;BME280;7885;42.596;23.044;2023-03-01T11:10:19;93237.47;;;10.69;76.51
15568;BME280;7885;42.596;23.044;2023-03-01T11:12:46;93218.38;;;10.54;77.17
15568;BME280;7885;42.596;23.044;2023-03-01T11:15:22;93260.41;;;10.78;77.30
15568;BME280;7885;42.596;23.044;2023-03-01T11:17:50;93246.41;;;10.83;76.54
15568;BME280;7885;42.596;23.044;2023-03-01T11:20:23;93233.19;;;10.82;77.25
15568;BME280;7885;42.596;23.044;2023-03-01T11:22:53;93234.00;;;10.93;77.10
15568;BME280;7885;42.596;23.044;2023-03-01T11:25:24;93216.09;;;10.92;77.38
15568;BME280;7885;42.596;23.044;2023-03-01T11:27:53;93222.31;;;11.06;77.53
15568;BME280;7885;42.596;23.044;2023-03-01T11:30:22;93216.84;;;11.17;77.42
15568;BME280;7885;42.596;23.044;2023-03-01T11:32:58;93207.50;;;11.11;77.15
15568;BME280;7885;42.596;23.044;2023-03-01T11:35:28;93200.91;;;10.91;76.94
15568;BME280;7885;42.596;23.044;2023-03-01T11:38:03;93198.59;;;10.89;77.21
15568;BME280;7885;42.596;23.044;2023-03-01T11:40:37;93190.41;;;10.82;76.59
15568;BME280;7885;42.596;23.044;2023-03-01T11:46:44;93217.63;;;11.14;77.32
15568;BME280;7885;42.596;23.044;2023-03-01T11:49:32;93192.72;;;11.12;76.67
15568;BME280;7885;42.596;23.044;2023-03-01T11:52:09;93203.97;;;11.35;76.46
15568;BME280;7885;42.596;23.044;2023-03-01T11:54:53;93193.50;;;11.30;76.90
15568;BME280;7885;42.596;23.044;2023-03-01T11:57:36;93196.19;;;11.44;75.79
15568;BME280;7885;42.596;23.044;2023-03-01T12:00:14;93197.38;;;11.29;75.36
15568;BME280;7885;42.596;23.044;2023-03-01T12:08:42;93198.88;;;11.58;74.61
15568;BME280;7885;42.596;23.044;2023-03-01T12:11:23;93194.94;;;11.81;75.02
15568;BME280;7885;42.596;23.044;2023-03-01T12:14:16;93181.72;;;11.76;73.74
15568;BME280;7885;42.596;23.044;2023-03-01T12:17:00;93191.91;;;11.50;74.42
15568;BME280;7885;42.596;23.044;2023-03-01T12:19:37;93189.22;;;11.33;74.87
15568;BME280;7885;42.596;23.044;2023-03-01T12:22:17;93157.28;;;11.40;75.88
15568;BME280;7885;42.596;23.044;2023-03-01T12:25:25;93183.28;;;11.77;75.02
15568;BME280;7885;42.596;23.044;2023-03-01T12:31:23;93183.50;;;12.10;74.49
15568;BME280;7885;42.596;23.044;2023-03-01T12:34:04;93186.16;;;12.28;73.73
15568;BME280;7885;42.596;23.044;2023-03-01T12:36:47;93182.22;;;12.36;73.52
15568;BME280;7885;42.596;23.044;2023-03-01T12:39:28;93177.88;;;12.42;72.99
15568;BME280;7885;42.596;23.044;2023-03-01T12:42:05;93171.56;;;12.56;72.63
15568;BME280;7885;42.596;23.044;2023-03-01T12:44:47;93181.28;;;12.60;71.57
15568;BME280;7885;42.596;23.044;2023-03-01T12:47:36;93182.06;;;12.61;70.33
15568;BME280;7885;42.596;23.044;2023-03-01T12:50:12;93133.53;;;12.24;70.31
15568;BME280;7885;42.596;23.044;2023-03-01T12:52:44;93161.59;;;12.28;70.60
15568;BME280;7885;42.596;23.044;2023-03-01T12:55:23;93194.84;;;12.09;71.61
15568;BME280;7885;42.596;23.044;2023-03-01T12:57:59;93126.47;;;11.57;72.71
15568;BME280;7885;42.596;23.044;2023-03-01T13:00:31;93198.47;;;11.74;72.94
15568;BME280;7885;42.596;23.044;2023-03-01T13:03:12;93186.03;;;11.59;73.60
15568;BME280;7885;42.596;23.044;2023-03-01T13:05:51;93164.31;;;11.27;74.55
15568;BME280;7885;42.596;23.044;2023-03-01T13:08:27;93191.56;;;11.24;75.22
15568;BME280;7885;42.596;23.044;2023-03-01T13:11:07;93193.50;;;11.16;75.97
15568;BME280;7885;42.596;23.044;2023-03-01T13:13:38;93192.72;;;11.19;76.27
15568;BME280;7885;42.596;23.044;2023-03-01T13:19:13;93187.28;;;11.26;77.16
15568;BME280;7885;42.596;23.044;2023-03-01T13:21:43;93174.81;;;11.29;77.01
15568;BME280;7885;42.596;23.044;2023-03-01T13:24:28;93167.03;;;11.27;76.55
15568;BME280;7885;42.596;23.044;2023-03-01T13:27:21;93160.81;;;11.30;76.97
15568;BME280;7885;42.596;23.044;2023-03-01T13:29:52;93186.06;;;11.41;77.21
15568;BME280;7885;42.596;23.044;2023-03-01T13:32:22;93174.81;;;11.29;77.03
15568;BME280;7885;42.596;23.044;2023-03-01T13:34:52;93170.13;;;11.29;77.25
15568;BME280;7885;42.596;23.044;2023-03-01T13:37:25;93129.72;;;11.06;77.43
15568;BME280;7885;42.596;23.044;2023-03-01T13:39:55;93175.22;;;11.31;77.58
15568;BME280;7885;42.596;23.044;2023-03-01T13:42:36;93167.78;;;11.31;77.68
15568;BME280;7885;42.596;23.044;2023-03-01T13:45:12;93144.47;;;11.16;77.30